sensor_id;sensor_type;location;lat;lon;timestamp;pressure;altitude;pressure_sealevel;temperature;humidity
68873;BME280;55907;50.806;12.882;2023-02-22T00:01:00;974.3;;;8.9;80.1
68873;BME280;55907;50.806;12.882;2023-02-22T00:04:04;974.2;;;8.9;80.2
68873;BME280;55907;50.806;12.882;2023-02-22T00:07:03;974.2;;;8.9;80.0
68873;BME280;55907;50.806;12.882;2023-02-22T00:10:05;974.2;;;8.9;80.0
68873;BME280;55907;50.806;12.882;2023-02-22T00:13:08;974.2;;;8.9;79.8
68873;BME280;55907;50.806;12.882;2023-02-22T00:16:08;974.2;;;8.9;80.0
68873;BME280;55907;50.806;12.882;2023-02-22T00:19:09;974.2;;;8.9;79.7
68873;BME280;55907;50.806;12.882;2023-02-22T00:22:11;974.2;;;8.9;79.7
68873;BME280;55907;50.806;12.882;2023-02-22T00:25:13;974.2;;;8.9;79.7
68873;BME280;55907;50.806;12.882;2023-02-22T00:28:15;974.2;;;9.0;79.4
68873;BME280;55907;50.806;12.882;2023-02-22T00:31:16;974.2;;;9.0;79.1
68873;BME280;55907;50.806;12.882;2023-02-22T00:34:16;974.1;;;9.0;79.2
68873;BME280;55907;50.806;12.882;2023-02-22T00:37:18;974.1;;;8.9;79.4
68873;BME280;55907;50.806;12.882;2023-02-22T00:40:21;974.2;;;8.9;79.6
68873;BME280;55907;50.806;12.882;2023-02-22T00:43:21;974.1;;;8.9;79.5
68873;BME280;55907;50.806;12.882;2023-02-22T00:46:22;974.1;;;8.9;79.8
68873;BME280;55907;50.806;12.882;2023-02-22T00:49:24;974.2;;;8.8;80.1
68873;BME280;55907;50.806;12.882;2023-02-22T00:52:25;974.1;;;8.8;80.1
68873;BME280;55907;50.806;12.882;2023-02-22T00:55:30;974.1;;;8.8;80.1
68873;BME280;55907;50.806;12.882;2023-02-22T00:58:28;974.0;;;8.8;80.1
68873;BME280;55907;50.806;12.882;2023-02-22T01:04:31;974.0;;;8.7;81.1
68873;BME280;55907;50.806;12.882;2023-02-22T01:07:33;974.0;;;8.6;81.7
68873;BME280;55907;50.806;12.882;2023-02-22T01:10:35;974.1;;;8.6;82.1
68873;BME280;55907;50.806;12.882;2023-02-22T01:13:36;974.0;;;8.6;82.4
68873;BME280;55907;50.806;12.882;2023-02-22T01:16:37;974.0;;;8.5;83.0
68873;BME280;55907;50.806;12.882;2023-02-22T01:19:39;974.0;;;8.5;82.9
68873;BME280;55907;50.806;12.882;2023-02-22T01:22:42;973.9;;;8.5;83.3
68873;BME280;55907;50.806;12.882;2023-02-22T01:25:42;973.9;;;8.5;83.3
68873;BME280;55907;50.806;12.882;2023-02-22T01:28:43;973.9;;;8.5;83.8
68873;BME280;55907;50.806;12.882;2023-02-22T01:31:50;973.8;;;8.5;84.2
68873;BME280;55907;50.806;12.882;2023-02-22T01:34:46;973.8;;;8.4;84.6
68873;BME280;55907;50.806;12.882;2023-02-22T01:37:48;973.8;;;8.4;84.8
68873;BME280;55907;50.806;12.882;2023-02-22T01:40:50;973.8;;;8.4;85.0
68873;BME280;55907;50.806;12.882;2023-02-22T01:43:51;973.8;;;8.4;84.8
68873;BME280;55907;50.806;12.882;2023-02-22T01:46:52;973.8;;;8.4;85.0
68873;BME280;55907;50.806;12.882;2023-02-22T01:49:54;973.8;;;8.4;84.8
68873;BME280;55907;50.806;12.882;2023-02-22T01:52:55;973.7;;;8.5;84.6
68873;BME280;55907;50.806;12.882;2023-02-22T01:55:57;973.7;;;8.5;84.7
68873;BME280;55907;50.806;12.882;2023-02-22T01:59:00;973.7;;;8.5;84.3
68873;BME280;55907;50.806;12.882;2023-02-22T02:02:00;973.7;;;8.6;84.1
68873;BME280;55907;50.806;12.882;2023-02-22T02:05:01;973.6;;;8.6;84.1
68873;BME280;55907;50.806;12.882;2023-02-22T02:08:10;973.6;;;8.6;83.7
68873;BME280;55907;50.806;12.882;2023-02-22T02:11:07;973.7;;;8.6;83.4
68873;BME280;55907;50.806;12.882;2023-02-22T02:14:07;973.6;;;8.6;83.3
68873;BME280;55907;50.806;12.882;2023-02-22T02:17:09;973.6;;;8.6;83.2
68873;BME280;55907;50.806;12.882;2023-02-22T02:20:13;973.6;;;8.6;82.9
68873;BME280;55907;50.806;12.882;2023-02-22T02:26:29;973.5;;;8.8;82.3
68873;BME280;55907;50.806;12.882;2023-02-22T02:32:21;973.5;;;8.8;82.4
68873;BME280;55907;50.806;12.882;2023-02-22T02:35:20;973.4;;;8.8;82.3
68873;BME280;55907;50.806;12.882;2023-02-22T02:38:27;973.4;;;8.8;82.2
68873;BME280;55907;50.806;12.882;2023-02-22T02:41:23;973.4;;;8.8;82.4
68873;BME280;55907;50.806;12.882;2023-02-22T02:44:25;973.4;;;8.8;82.4
68873;BME280;55907;50.806;12.882;2023-02-22T02:47:25;973.3;;;8.8;82.5
68873;BME280;55907;50.806;12.882;2023-02-22T02:50:26;973.3;;;8.8;82.6
68873;BME280;55907;50.806;12.882;2023-02-22T02:53:31;973.4;;;8.9;82.5
68873;BME280;55907;50.806;12.882;2023-02-22T02:56:27;973.3;;;8.8;82.4
68873;BME280;55907;50.806;12.882;2023-02-22T02:59:31;973.3;;;8.8;82.3
68873;BME280;55907;50.806;12.882;2023-02-22T03:02:38;973.3;;;8.9;82.4
68873;BME280;55907;50.806;12.882;2023-02-22T03:05:40;973.2;;;8.8;82.5
68873;BME280;55907;50.806;12.882;2023-02-22T03:08:39;973.2;;;8.8;82.2
68873;BME280;55907;50.806;12.882;2023-02-22T03:11:42;973.2;;;8.8;81.8
68873;BME280;55907;50.806;12.882;2023-02-22T03:14:40;973.2;;;8.8;81.5
68873;BME280;55907;50.806;12.882;2023-02-22T03:17:42;973.2;;;8.8;81.7
68873;BME280;55907;50.806;12.882;2023-02-22T03:20:43;973.1;;;8.8;81.9
68873;BME280;55907;50.806;12.882;2023-02-22T03:23:45;973.1;;;8.9;81.7
68873;BME280;55907;50.806;12.882;2023-02-22T03:26:45;973.1;;;8.9;81.5
68873;BME280;55907;50.806;12.882;2023-02-22T03:29:44;973.1;;;8.8;81.9
68873;BME280;55907;50.806;12.882;2023-02-22T03:32:47;973.1;;;8.8;81.9
68873;BME280;55907;50.806;12.882;2023-02-22T03:35:48;973.1;;;8.9;82.1
68873;BME280;55907;50.806;12.882;2023-02-22T03:38:49;973.1;;;8.8;82.6
68873;BME280;55907;50.806;12.882;2023-02-22T03:41:49;973.0;;;8.8;82.3
68873;BME280;55907;50.806;12.882;2023-02-22T03:44:52;973.0;;;8.7;83.3
68873;BME280;55907;50.806;12.882;2023-02-22T03:47:59;973.0;;;8.7;82.8
68873;BME280;55907;50.806;12.882;2023-02-22T03:50:53;973.0;;;8.7;82.5
68873;BME280;55907;50.806;12.882;2023-02-22T03:53:55;973.0;;;8.8;82.0
68873;BME280;55907;50.806;12.882;2023-02-22T03:56:59;973.2;;;8.8;81.8
68873;BME280;55907;50.806;12.882;2023-02-22T03:59:58;973.2;;;8.8;82.2
68873;BME280;55907;50.806;12.882;2023-02-22T04:02:59;973.1;;;8.8;82.6
68873;BME280;55907;50.806;12.882;2023-02-22T04:06:01;973.1;;;8.7;82.5
68873;BME280;55907;50.806;12.882;2023-02-22T04:09:02;973.1;;;8.7;82.2
68873;BME280;55907;50.806;12.882;2023-02-22T04:12:04;973.2;;;8.7;82.0
68873;BME280;55907;50.806;12.882;2023-02-22T04:15:07;973.1;;;8.7;81.9
68873;BME280;55907;50.806;12.882;2023-02-22T04:21:08;973.2;;;8.7;82.5
68873;BME280;55907;50.806;12.882;2023-02-22T04:24:10;973.1;;;8.8;82.1
68873;BME280;55907;50.806;12.882;2023-02-22T04:27:11;973.2;;;8.8;82.6
68873;BME280;55907;50.806;12.882;2023-02-22T04:30:15;973.1;;;8.8;82.8
68873;BME280;55907;50.806;12.882;2023-02-22T04:33:14;973.1;;;8.8;82.3
68873;BME280;55907;50.806;12.882;2023-02-22T04:36:16;973.0;;;8.9;82.2
68873;BME280;55907;50.806;12.882;2023-02-22T04:39:17;973.0;;;8.9;81.4
68873;BME280;55907;50.806;12.882;2023-02-22T04:42:19;973.0;;;8.9;81.3
68873;BME280;55907;50.806;12.882;2023-02-22T04:45:20;973.0;;;8.9;81.2
68873;BME280;55907;50.806;12.882;2023-02-22T04:48:21;972.9;;;8.9;81.1
68873;BME280;55907;50.806;12.882;2023-02-22T04:51:23;973.0;;;8.9;81.5
68873;BME280;55907;50.806;12.882;2023-02-22T04:54:24;973.0;;;9.0;81.8
68873;BME280;55907;50.806;12.882;2023-02-22T04:57:26;973.0;;;9.0;81.6
68873;BME280;55907;50.806;12.882;2023-02-22T05:00:28;972.9;;;9.0;81.5
68873;BME280;55907;50.806;12.882;2023-02-22T05:03:29;972.9;;;8.9;81.9
68873;BME280;55907;50.806;12.882;2023-02-22T05:06:31;972.9;;;8.8;82.1
68873;BME280;55907;50.806;12.882;2023-02-22T05:09:32;972.9;;;8.8;82.1
68873;BME280;55907;50.806;12.882;2023-02-22T05:12:34;972.8;;;8.8;82.0
68873;BME280;55907;50.806;12.882;2023-02-22T05:15:35;972.8;;;8.8;82.2
68873;BME280;55907;50.806;12.882;2023-02-22T05:18:37;972.8;;;8.8;82.4
68873;BME280;55907;50.806;12.882;2023-02-22T05:24:40;972.8;;;8.7;82.7
68873;BME280;55907;50.806;12.882;2023-02-22T05:27:41;972.8;;;8.7;83.1
68873;BME280;55907;50.806;12.882;2023-02-22T05:30:42;972.8;;;8.7;82.8
68873;BME280;55907;50.806;12.882;2023-02-22T05:33:44;972.8;;;8.6;83.3
68873;BME280;55907;50.806;12.882;2023-02-22T05:36:45;972.8;;;8.7;83.2
68873;BME280;55907;50.806;12.882;2023-02-22T05:39:47;972.8;;;8.6;83.8
68873;BME280;55907;50.806;12.882;2023-02-22T05:42:49;972.8;;;8.6;83.7
68873;BME280;55907;50.806;12.882;2023-02-22T05:45:50;972.8;;;8.6;83.4
68873;BME280;55907;50.806;12.882;2023-02-22T05:48:51;972.7;;;8.6;83.8
68873;BME280;55907;50.806;12.882;2023-02-22T05:51:53;972.8;;;8.7;83.6
68873;BME280;55907;50.806;12.882;2023-02-22T05:54:55;972.7;;;8.7;83.4
68873;BME280;55907;50.806;12.882;2023-02-22T05:57:56;972.7;;;8.7;83.0
68873;BME280;55907;50.806;12.882;2023-02-22T06:00:58;972.7;;;8.7;83.3
68873;BME280;55907;50.806;12.882;2023-02-22T06:03:59;972.7;;;8.6;83.2
68873;BME280;55907;50.806;12.882;2023-02-22T06:07:00;972.7;;;8.6;83.1
68873;BME280;55907;50.806;12.882;2023-02-22T06:10:03;972.8;;;8.7;82.6
68873;BME280;55907;50.806;12.882;2023-02-22T06:13:04;972.7;;;8.7;82.4
68873;BME280;55907;50.806;12.882;2023-02-22T06:16:06;972.8;;;8.7;82.1
68873;BME280;55907;50.806;12.882;2023-02-22T06:19:06;972.7;;;8.7;82.3
68873;BME280;55907;50.806;12.882;2023-02-22T06:22:14;972.7;;;8.7;82.7
68873;BME280;55907;50.806;12.882;2023-02-22T06:25:13;972.8;;;8.7;82.4
68873;BME280;55907;50.806;12.882;2023-02-22T06:28:11;972.8;;;8.7;81.9
68873;BME280;55907;50.806;12.882;2023-02-22T06:31:12;972.8;;;8.8;81.9
68873;BME280;55907;50.806;12.882;2023-02-22T06:34:14;972.8;;;8.9;81.8
68873;BME280;55907;50.806;12.882;2023-02-22T06:37:15;972.9;;;9.0;81.5
68873;BME280;55907;50.806;12.882;2023-02-22T06:40:17;972.9;;;9.0;81.2
68873;BME280;55907;50.806;12.882;2023-02-22T06:43:18;972.9;;;9.0;81.4
68873;BME280;55907;50.806;12.882;2023-02-22T06:46:20;972.9;;;9.0;81.2
68873;BME280;55907;50.806;12.882;2023-02-22T06:49:21;972.9;;;9.1;81.3
68873;BME280;55907;50.806;12.882;2023-02-22T06:52:23;972.9;;;9.1;81.0
68873;BME280;55907;50.806;12.882;2023-02-22T06:55:26;972.9;;;9.1;80.8
68873;BME280;55907;50.806;12.882;2023-02-22T06:58:26;973.0;;;9.2;80.9
68873;BME280;55907;50.806;12.882;2023-02-22T07:01:28;972.9;;;9.2;80.9
68873;BME280;55907;50.806;12.882;2023-02-22T07:04:29;973.0;;;9.2;81.2
68873;BME280;55907;50.806;12.882;2023-02-22T07:07:30;972.9;;;9.2;80.9
68873;BME280;55907;50.806;12.882;2023-02-22T07:10:33;973.0;;;9.3;80.9
68873;BME280;55907;50.806;12.882;2023-02-22T07:13:33;973.0;;;9.3;80.9
68873;BME280;55907;50.806;12.882;2023-02-22T07:16:35;973.0;;;9.3;80.1
68873;BME280;55907;50.806;12.882;2023-02-22T07:19:36;973.0;;;9.4;80.0
68873;BME280;55907;50.806;12.882;2023-02-22T07:22:38;973.0;;;9.4;79.8
68873;BME280;55907;50.806;12.882;2023-02-22T07:25:39;973.0;;;9.4;79.3
68873;BME280;55907;50.806;12.882;2023-02-22T07:28:40;973.0;;;9.4;79.0
68873;BME280;55907;50.806;12.882;2023-02-22T07:31:42;973.0;;;9.5;78.8
68873;BME280;55907;50.806;12.882;2023-02-22T07:34:44;973.0;;;9.6;78.2
68873;BME280;55907;50.806;12.882;2023-02-22T07:37:45;973.0;;;9.6;77.7
68873;BME280;55907;50.806;12.882;2023-02-22T07:40:47;973.1;;;9.7;77.2
68873;BME280;55907;50.806;12.882;2023-02-22T07:43:48;973.0;;;9.8;77.0
68873;BME280;55907;50.806;12.882;2023-02-22T07:46:49;973.0;;;9.9;76.8
68873;BME280;55907;50.806;12.882;2023-02-22T07:49:51;973.0;;;10.0;76.6
68873;BME280;55907;50.806;12.882;2023-02-22T07:52:54;973.0;;;10.0;76.4
68873;BME280;55907;50.806;12.882;2023-02-22T07:55:54;973.0;;;10.1;76.2
68873;BME280;55907;50.806;12.882;2023-02-22T07:58:56;973.0;;;10.1;75.5
68873;BME280;55907;50.806;12.882;2023-02-22T08:01:57;973.0;;;10.1;76.0
68873;BME280;55907;50.806;12.882;2023-02-22T08:04:58;973.0;;;10.1;75.5
68873;BME280;55907;50.806;12.882;2023-02-22T08:08:00;973.0;;;10.1;75.4
68873;BME280;55907;50.806;12.882;2023-02-22T08:11:01;973.0;;;10.2;75.3
68873;BME280;55907;50.806;12.882;2023-02-22T08:14:03;973.0;;;10.2;75.2
68873;BME280;55907;50.806;12.882;2023-02-22T08:17:04;973.1;;;10.3;74.7
68873;BME280;55907;50.806;12.882;2023-02-22T08:20:06;973.0;;;10.4;74.8
68873;BME280;55907;50.806;12.882;2023-02-22T08:23:08;973.0;;;10.4;75.1
68873;BME280;55907;50.806;12.882;2023-02-22T08:26:10;973.0;;;10.5;74.8
68873;BME280;55907;50.806;12.882;2023-02-22T08:29:10;973.0;;;10.5;74.4
68873;BME280;55907;50.806;12.882;2023-02-22T08:32:12;973.0;;;10.6;73.9
68873;BME280;55907;50.806;12.882;2023-02-22T08:35:15;973.0;;;10.6;73.8
68873;BME280;55907;50.806;12.882;2023-02-22T08:38:17;973.0;;;10.8;73.3
68873;BME280;55907;50.806;12.882;2023-02-22T08:41:16;973.0;;;10.7;73.5
68873;BME280;55907;50.806;12.882;2023-02-22T08:44:18;973.0;;;10.8;73.4
68873;BME280;55907;50.806;12.882;2023-02-22T08:47:19;972.9;;;10.8;73.2
68873;BME280;55907;50.806;12.882;2023-02-22T08:50:23;972.9;;;10.9;73.1
68873;BME280;55907;50.806;12.882;2023-02-22T08:53:22;972.9;;;10.9;72.6
68873;BME280;55907;50.806;12.882;2023-02-22T08:56:23;972.9;;;10.9;72.3
68873;BME280;55907;50.806;12.882;2023-02-22T08:59:25;972.9;;;11.0;72.4
68873;BME280;55907;50.806;12.882;2023-02-22T09:02:27;973.0;;;11.1;72.1
68873;BME280;55907;50.806;12.882;2023-02-22T09:05:28;972.9;;;11.2;71.8
68873;BME280;55907;50.806;12.882;2023-02-22T09:08:29;973.0;;;11.3;71.0
68873;BME280;55907;50.806;12.882;2023-02-22T09:11:31;973.0;;;11.3;69.8
68873;BME280;55907;50.806;12.882;2023-02-22T09:14:32;973.0;;;11.3;70.4
68873;BME280;55907;50.806;12.882;2023-02-22T09:17:34;972.9;;;11.4;70.0
68873;BME280;55907;50.806;12.882;2023-02-22T09:20:36;972.9;;;11.5;69.7
68873;BME280;55907;50.806;12.882;2023-02-22T09:23:37;972.9;;;11.6;69.5
68873;BME280;55907;50.806;12.882;2023-02-22T09:26:38;972.9;;;11.8;69.4
68873;BME280;55907;50.806;12.882;2023-02-22T09:29:40;972.9;;;12.0;69.1
68873;BME280;55907;50.806;12.882;2023-02-22T09:32:41;972.9;;;12.1;68.1
68873;BME280;55907;50.806;12.882;2023-02-22T09:35:44;972.9;;;12.2;67.9
68873;BME280;55907;50.806;12.882;2023-02-22T09:38:44;972.8;;;12.4;66.3
68873;BME280;55907;50.806;12.882;2023-02-22T09:41:52;972.8;;;12.5;66.0
68873;BME280;55907;50.806;12.882;2023-02-22T09:44:50;972.8;;;12.6;65.2
68873;BME280;55907;50.806;12.882;2023-02-22T09:47:52;972.8;;;12.8;64.8
68873;BME280;55907;50.806;12.882;2023-02-22T09:50:52;972.8;;;12.9;64.6
68873;BME280;55907;50.806;12.882;2023-02-22T09:53:54;972.7;;;13.1;64.3
68873;BME280;55907;50.806;12.882;2023-02-22T09:56:55;972.7;;;13.2;63.1
68873;BME280;55907;50.806;12.882;2023-02-22T09:59:59;972.7;;;13.3;63.0
68873;BME280;55907;50.806;12.882;2023-02-22T10:03:04;972.7;;;13.3;62.8
68873;BME280;55907;50.806;12.882;2023-02-22T10:05:59;972.7;;;13.4;61.9
68873;BME280;55907;50.806;12.882;2023-02-22T10:09:01;972.7;;;13.6;61.8
68873;BME280;55907;50.806;12.882;2023-02-22T10:12:04;972.7;;;13.8;63.0
68873;BME280;55907;50.806;12.882;2023-02-22T10:18:20;972.6;;;14.0;60.2
68873;BME280;55907;50.806;12.882;2023-02-22T10:21:11;972.7;;;14.0;60.3
68873;BME280;55907;50.806;12.882;2023-02-22T10:24:11;972.6;;;14.0;59.8
68873;BME280;55907;50.806;12.882;2023-02-22T10:27:15;972.6;;;13.8;60.7
68873;BME280;55907;50.806;12.882;2023-02-22T10:30:15;972.6;;;13.9;60.8
68873;BME280;55907;50.806;12.882;2023-02-22T10:33:13;972.6;;;14.0;60.2
68873;BME280;55907;50.806;12.882;2023-02-22T10:36:17;972.6;;;14.0;59.9
68873;BME280;55907;50.806;12.882;2023-02-22T10:39:19;972.6;;;14.0;60.4
68873;BME280;55907;50.806;12.882;2023-02-22T10:42:15;972.5;;;14.1;60.9
68873;BME280;55907;50.806;12.882;2023-02-22T10:45:20;972.5;;;14.2;60.5
68873;BME280;55907;50.806;12.882;2023-02-22T10:48:19;972.5;;;14.3;60.3
68873;BME280;55907;50.806;12.882;2023-02-22T10:51:20;972.5;;;14.4;60.6
68873;BME280;55907;50.806;12.882;2023-02-22T10:54:25;972.5;;;14.6;59.7
68873;BME280;55907;50.806;12.882;2023-02-22T10:57:25;972.5;;;14.7;59.3
68873;BME280;55907;50.806;12.882;2023-02-22T11:00:29;972.5;;;14.9;59.0
68873;BME280;55907;50.806;12.882;2023-02-22T11:03:25;972.4;;;14.9;57.8
68873;BME280;55907;50.806;12.882;2023-02-22T11:06:27;972.4;;;14.9;58.1
68873;BME280;55907;50.806;12.882;2023-02-22T11:09:27;972.4;;;15.1;57.5
68873;BME280;55907;50.806;12.882;2023-02-22T11:12:30;972.4;;;15.2;57.4
68873;BME280;55907;50.806;12.882;2023-02-22T11:15:30;972.4;;;15.4;56.0
68873;BME280;55907;50.806;12.882;2023-02-22T11:18:33;972.3;;;15.5;55.3
68873;BME280;55907;50.806;12.882;2023-02-22T11:21:33;972.3;;;16.2;55.0
68873;BME280;55907;50.806;12.882;2023-02-22T11:24:43;972.2;;;16.6;53.4
68873;BME280;55907;50.806;12.882;2023-02-22T11:27:38;972.2;;;17.0;52.4
68873;BME280;55907;50.806;12.882;2023-02-22T11:30:37;972.2;;;17.0;51.6
68873;BME280;55907;50.806;12.882;2023-02-22T11:33:50;972.2;;;16.6;51.7
68873;BME280;55907;50.806;12.882;2023-02-22T11:36:41;972.2;;;16.2;53.4
68873;BME280;55907;50.806;12.882;2023-02-22T11:39:42;972.1;;;15.9;53.2
68873;BME280;55907;50.806;12.882;2023-02-22T11:42:43;972.0;;;15.7;54.3
68873;BME280;55907;50.806;12.882;2023-02-22T11:45:55;972.0;;;15.6;54.1
68873;BME280;55907;50.806;12.882;2023-02-22T11:48:56;972.0;;;15.6;54.2
68873;BME280;55907;50.806;12.882;2023-02-22T11:51:58;971.9;;;15.6;54.5
68873;BME280;55907;50.806;12.882;2023-02-22T11:54:59;971.9;;;15.7;54.2
68873;BME280;55907;50.806;12.882;2023-02-22T12:00:56;971.9;;;15.9;53.2
68873;BME280;55907;50.806;12.882;2023-02-22T12:07:01;971.8;;;16.4;52.3
68873;BME280;55907;50.806;12.882;2023-02-22T12:10:00;971.8;;;16.9;51.1
68873;BME280;55907;50.806;12.882;2023-02-22T12:13:08;971.7;;;17.3;50.5
68873;BME280;55907;50.806;12.882;2023-02-22T12:16:06;971.7;;;17.4;49.1
68873;BME280;55907;50.806;12.882;2023-02-22T12:19:07;971.7;;;17.5;49.8
68873;BME280;55907;50.806;12.882;2023-02-22T12:22:04;971.7;;;17.3;48.9
68873;BME280;55907;50.806;12.882;2023-02-22T12:25:12;971.7;;;17.1;49.9
68873;BME280;55907;50.806;12.882;2023-02-22T12:28:15;971.7;;;17.0;50.2
68873;BME280;55907;50.806;12.882;2023-02-22T12:31:12;971.7;;;16.9;50.5
68873;BME280;55907;50.806;12.882;2023-02-22T12:34:14;971.7;;;16.7;51.3
68873;BME280;55907;50.806;12.882;2023-02-22T12:37:15;971.6;;;16.6;50.9
68873;BME280;55907;50.806;12.882;2023-02-22T12:40:17;971.6;;;16.7;51.2
68873;BME280;55907;50.806;12.882;2023-02-22T12:43:15;971.6;;;16.7;50.9
68873;BME280;55907;50.806;12.882;2023-02-22T12:46:17;971.6;;;16.6;51.5
68873;BME280;55907;50.806;12.882;2023-02-22T12:49:19;971.6;;;16.6;51.2
68873;BME280;55907;50.806;12.882;2023-02-22T12:52:25;971.6;;;16.7;51.0
68873;BME280;55907;50.806;12.882;2023-02-22T12:55:20;971.6;;;16.9;51.4
68873;BME280;55907;50.806;12.882;2023-02-22T12:58:23;971.5;;;17.0;50.7
68873;BME280;55907;50.806;12.882;2023-02-22T13:01:23;971.5;;;17.1;50.2
68873;BME280;55907;50.806;12.882;2023-02-22T13:04:21;971.5;;;17.2;49.9
68873;BME280;55907;50.806;12.882;2023-02-22T13:07:29;971.5;;;17.1;49.9
68873;BME280;55907;50.806;12.882;2023-02-22T13:10:37;971.5;;;17.1;49.8
68873;BME280;55907;50.806;12.882;2023-02-22T13:13:31;971.4;;;17.1;49.7
68873;BME280;55907;50.806;12.882;2023-02-22T13:16:34;971.5;;;17.1;50.4
68873;BME280;55907;50.806;12.882;2023-02-22T13:19:36;971.5;;;17.0;49.9
68873;BME280;55907;50.806;12.882;2023-02-22T13:22:34;971.4;;;16.8;49.8
68873;BME280;55907;50.806;12.882;2023-02-22T13:25:37;971.4;;;16.7;49.9
68873;BME280;55907;50.806;12.882;2023-02-22T13:28:36;971.4;;;16.6;50.2
68873;BME280;55907;50.806;12.882;2023-02-22T13:31:44;971.4;;;16.4;50.6
68873;BME280;55907;50.806;12.882;2023-02-22T13:34:46;971.4;;;16.5;50.5
68873;BME280;55907;50.806;12.882;2023-02-22T13:40:46;971.3;;;16.2;51.6
68873;BME280;55907;50.806;12.882;2023-02-22T13:46:59;971.3;;;16.0;52.2
68873;BME280;55907;50.806;12.882;2023-02-22T13:52:44;971.3;;;16.0;51.2
68873;BME280;55907;50.806;12.882;2023-02-22T13:55:51;971.3;;;15.8;52.4
68873;BME280;55907;50.806;12.882;2023-02-22T13:58:49;971.2;;;15.7;52.6
68873;BME280;55907;50.806;12.882;2023-02-22T14:01:49;971.1;;;15.5;53.0
68873;BME280;55907;50.806;12.882;2023-02-22T14:04:49;971.2;;;15.4;53.9
68873;BME280;55907;50.806;12.882;2023-02-22T14:07:51;971.2;;;15.3;54.1
68873;BME280;55907;50.806;12.882;2023-02-22T14:10:54;971.2;;;15.3;54.3
68873;BME280;55907;50.806;12.882;2023-02-22T14:14:12;971.2;;;15.2;54.2
68873;BME280;55907;50.806;12.882;2023-02-22T14:20:03;971.1;;;15.2;54.3
68873;BME280;55907;50.806;12.882;2023-02-22T14:29:15;971.1;;;15.1;54.7
68873;BME280;55907;50.806;12.882;2023-02-22T14:32:04;971.1;;;15.1;55.1
68873;BME280;55907;50.806;12.882;2023-02-22T14:35:06;971.1;;;14.9;55.4
68873;BME280;55907;50.806;12.882;2023-02-22T14:38:13;971.1;;;14.8;55.7
68873;BME280;55907;50.806;12.882;2023-02-22T14:41:07;971.1;;;14.7;56.0
68873;BME280;55907;50.806;12.882;2023-02-22T14:44:09;971.1;;;14.6;56.4
68873;BME280;55907;50.806;12.882;2023-02-22T14:47:16;971.1;;;14.6;56.5
68873;BME280;55907;50.806;12.882;2023-02-22T14:50:16;971.0;;;14.5;56.7
68873;BME280;55907;50.806;12.882;2023-02-22T14:53:21;971.0;;;14.6;56.7
68873;BME280;55907;50.806;12.882;2023-02-22T14:56:16;971.0;;;14.5;56.9
68873;BME280;55907;50.806;12.882;2023-02-22T14:59:18;971.0;;;14.3;57.2
68873;BME280;55907;50.806;12.882;2023-02-22T15:02:18;971.0;;;14.1;57.9
68873;BME280;55907;50.806;12.882;2023-02-22T15:05:19;970.9;;;13.9;58.5
68873;BME280;55907;50.806;12.882;2023-02-22T15:08:20;970.9;;;13.8;58.8
68873;BME280;55907;50.806;12.882;2023-02-22T15:11:23;970.9;;;13.7;59.1
68873;BME280;55907;50.806;12.882;2023-02-22T15:14:24;970.9;;;13.6;59.6
68873;BME280;55907;50.806;12.882;2023-02-22T15:17:24;970.9;;;13.6;59.8
68873;BME280;55907;50.806;12.882;2023-02-22T15:20:27;970.9;;;13.5;60.0
68873;BME280;55907;50.806;12.882;2023-02-22T15:23:29;970.9;;;13.4;60.2
68873;BME280;55907;50.806;12.882;2023-02-22T15:26:32;970.8;;;13.3;60.4
68873;BME280;55907;50.806;12.882;2023-02-22T15:29:33;970.9;;;13.2;60.6
68873;BME280;55907;50.806;12.882;2023-02-22T15:32:33;970.9;;;13.1;61.0
68873;BME280;55907;50.806;12.882;2023-02-22T15:35:33;970.9;;;13.0;61.5
68873;BME280;55907;50.806;12.882;2023-02-22T15:38:38;970.8;;;12.9;61.8
68873;BME280;55907;50.806;12.882;2023-02-22T15:41:36;970.8;;;12.8;62.1
68873;BME280;55907;50.806;12.882;2023-02-22T15:47:39;970.8;;;12.7;63.0
68873;BME280;55907;50.806;12.882;2023-02-22T15:50:58;970.8;;;12.6;63.5
68873;BME280;55907;50.806;12.882;2023-02-22T15:53:44;970.8;;;12.5;63.7
68873;BME280;55907;50.806;12.882;2023-02-22T15:56:47;970.7;;;12.5;64.0
68873;BME280;55907;50.806;12.882;2023-02-22T15:59:48;970.8;;;12.4;64.4
68873;BME280;55907;50.806;12.882;2023-02-22T16:02:47;970.8;;;12.3;65.2
68873;BME280;55907;50.806;12.882;2023-02-22T16:05:50;970.8;;;12.2;65.3
68873;BME280;55907;50.806;12.882;2023-02-22T16:08:50;970.8;;;12.1;66.4
68873;BME280;55907;50.806;12.882;2023-02-22T16:12:09;970.8;;;12.1;66.0
68873;BME280;55907;50.806;12.882;2023-02-22T16:14:53;970.8;;;12.0;66.8
68873;BME280;55907;50.806;12.882;2023-02-22T16:17:54;970.7;;;11.9;67.3
68873;BME280;55907;50.806;12.882;2023-02-22T16:20:57;970.8;;;11.9;67.1
68873;BME280;55907;50.806;12.882;2023-02-22T16:23:57;970.7;;;11.8;67.6
68873;BME280;55907;50.806;12.882;2023-02-22T16:27:05;970.7;;;11.8;67.9
68873;BME280;55907;50.806;12.882;2023-02-22T16:30:06;970.7;;;11.7;67.9
68873;BME280;55907;50.806;12.882;2023-02-22T16:33:04;970.7;;;11.6;67.9
68873;BME280;55907;50.806;12.882;2023-02-22T16:36:05;970.8;;;11.5;68.4
68873;BME280;55907;50.806;12.882;2023-02-22T16:39:05;970.8;;;11.4;68.8
68873;BME280;55907;50.806;12.882;2023-02-22T16:42:05;970.7;;;11.4;68.8
68873;BME280;55907;50.806;12.882;2023-02-22T16:45:07;970.7;;;11.3;69.6
68873;BME280;55907;50.806;12.882;2023-02-22T16:48:13;970.7;;;11.3;69.3
68873;BME280;55907;50.806;12.882;2023-02-22T16:51:17;970.7;;;11.3;69.2
68873;BME280;55907;50.806;12.882;2023-02-22T16:54:16;970.7;;;11.2;69.5
68873;BME280;55907;50.806;12.882;2023-02-22T16:57:17;970.7;;;11.1;69.8
68873;BME280;55907;50.806;12.882;2023-02-22T17:00:18;970.7;;;11.1;70.2
68873;BME280;55907;50.806;12.882;2023-02-22T17:03:17;970.7;;;11.0;70.3
68873;BME280;55907;50.806;12.882;2023-02-22T17:06:17;970.6;;;10.9;70.8
68873;BME280;55907;50.806;12.882;2023-02-22T17:09:19;970.7;;;10.9;71.1
68873;BME280;55907;50.806;12.882;2023-02-22T17:12:20;970.7;;;10.8;71.2
68873;BME280;55907;50.806;12.882;2023-02-22T17:15:25;970.7;;;10.8;71.6
68873;BME280;55907;50.806;12.882;2023-02-22T17:18:25;970.7;;;10.7;71.6
68873;BME280;55907;50.806;12.882;2023-02-22T17:21:25;970.6;;;10.7;71.7
68873;BME280;55907;50.806;12.882;2023-02-22T17:24:26;970.6;;;10.6;72.2
68873;BME280;55907;50.806;12.882;2023-02-22T17:27:28;970.6;;;10.5;72.7
68873;BME280;55907;50.806;12.882;2023-02-22T17:30:29;970.6;;;10.5;72.7
68873;BME280;55907;50.806;12.882;2023-02-22T17:33:33;970.6;;;10.4;72.9
68873;BME280;55907;50.806;12.882;2023-02-22T17:36:33;970.6;;;10.4;73.1
68873;BME280;55907;50.806;12.882;2023-02-22T17:39:34;970.6;;;10.3;73.4
68873;BME280;55907;50.806;12.882;2023-02-22T17:42:35;970.6;;;10.3;73.3
68873;BME280;55907;50.806;12.882;2023-02-22T17:48:39;970.6;;;10.2;73.7